sensor_id;sensor_type;location;lat;lon;timestamp;temperature;humidity
17182;DHT22;8706;48.254;16.422;2023-12-04T00:02:04;16.30;58.10
17182;DHT22;8706;48.254;16.422;2023-12-04T00:04:32;16.30;58.10
17182;DHT22;8706;48.254;16.422;2023-12-04T00:06:59;16.30;58.10
17182;DHT22;8706;48.254;16.422;2023-12-04T00:09:26;16.30;58.20
17182;DHT22;8706;48.254;16.422;2023-12-04T00:11:53;16.30;58.10
17182;DHT22;8706;48.254;16.422;2023-12-04T00:14:20;16.30;58.10
17182;DHT22;8706;48.254;16.422;2023-12-04T00:16:47;16.30;58.10
17182;DHT22;8706;48.254;16.422;2023-12-04T00:19:14;16.30;58.20
17182;DHT22;8706;48.254;16.422;2023-12-04T00:21:42;16.30;58.20
17182;DHT22;8706;48.254;16.422;2023-12-04T00:24:09;16.30;58.20
17182;DHT22;8706;48.254;16.422;2023-12-04T00:26:35;16.30;58.20
17182;DHT22;8706;48.254;16.422;2023-12-04T00:29:02;16.30;58.20
17182;DHT22;8706;48.254;16.422;2023-12-04T00:31:29;16.20;58.20
17182;DHT22;8706;48.254;16.422;2023-12-04T00:33:57;16.20;58.10
17182;DHT22;8706;48.254;16.422;2023-12-04T00:36:24;16.20;58.20
17182;DHT22;8706;48.254;16.422;2023-12-04T00:38:52;16.20;58.20
17182;DHT22;8706;48.254;16.422;2023-12-04T00:41:19;16.20;58.20
17182;DHT22;8706;48.254;16.422;2023-12-04T00:43:46;16.20;58.20
17182;DHT22;8706;48.254;16.422;2023-12-04T00:46:12;16.30;58.20
17182;DHT22;8706;48.254;16.422;2023-12-04T00:48:39;16.20;58.10
17182;DHT22;8706;48.254;16.422;2023-12-04T00:51:06;16.30;58.20
17182;DHT22;8706;48.254;16.422;2023-12-04T00:53:33;16.30;58.20
17182;DHT22;8706;48.254;16.422;2023-12-04T00:56:02;16.20;58.20
17182;DHT22;8706;48.254;16.422;2023-12-04T00:58:28;16.20;58.20
17182;DHT22;8706;48.254;16.422;2023-12-04T01:00:55;16.20;58.20
17182;DHT22;8706;48.254;16.422;2023-12-04T01:03:22;16.20;58.20
17182;DHT22;8706;48.254;16.422;2023-12-04T01:05:52;16.20;58.20
17182;DHT22;8706;48.254;16.422;2023-12-04T01:08:19;16.10;58.20
17182;DHT22;8706;48.254;16.422;2023-12-04T01:10:45;16.10;58.30
17182;DHT22;8706;48.254;16.422;2023-12-04T01:13:14;16.10;58.30
17182;DHT22;8706;48.254;16.422;2023-12-04T01:15:41;16.10;58.30
17182;DHT22;8706;48.254;16.422;2023-12-04T01:18:08;16.10;58.20
17182;DHT22;8706;48.254;16.422;2023-12-04T01:20:35;16.20;58.20
17182;DHT22;8706;48.254;16.422;2023-12-04T01:23:02;16.20;58.20
17182;DHT22;8706;48.254;16.422;2023-12-04T01:25:28;16.20;58.20
17182;DHT22;8706;48.254;16.422;2023-12-04T01:27:55;16.20;58.20
17182;DHT22;8706;48.254;16.422;2023-12-04T01:30:24;16.20;58.20
17182;DHT22;8706;48.254;16.422;2023-12-04T01:32:50;16.20;58.20
17182;DHT22;8706;48.254;16.422;2023-12-04T01:35:18;16.20;58.20
17182;DHT22;8706;48.254;16.422;2023-12-04T01:37:45;16.10;58.20
17182;DHT22;8706;48.254;16.422;2023-12-04T01:40:12;16.10;58.30
17182;DHT22;8706;48.254;16.422;2023-12-04T01:42:39;16.10;58.20
17182;DHT22;8706;48.254;16.422;2023-12-04T01:45:06;16.10;58.20
17182;DHT22;8706;48.254;16.422;2023-12-04T01:47:35;16.10;58.30
17182;DHT22;8706;48.254;16.422;2023-12-04T01:50:03;16.10;58.20
17182;DHT22;8706;48.254;16.422;2023-12-04T01:52:30;16.10;58.20
17182;DHT22;8706;48.254;16.422;2023-12-04T01:54:57;16.10;58.20
17182;DHT22;8706;48.254;16.422;2023-12-04T01:57:24;16.10;58.10
17182;DHT22;8706;48.254;16.422;2023-12-04T01:59:51;16.20;58.20
17182;DHT22;8706;48.254;16.422;2023-12-04T02:02:18;16.10;58.20
17182;DHT22;8706;48.254;16.422;2023-12-04T02:04:48;16.10;58.20
17182;DHT22;8706;48.254;16.422;2023-12-04T02:07:14;16.10;58.30
17182;DHT22;8706;48.254;16.422;2023-12-04T02:09:41;16.10;58.20
17182;DHT22;8706;48.254;16.422;2023-12-04T02:12:08;16.10;58.20
17182;DHT22;8706;48.254;16.422;2023-12-04T02:14:36;16.10;58.20
17182;DHT22;8706;48.254;16.422;2023-12-04T02:17:05;16.10;58.20
17182;DHT22;8706;48.254;16.422;2023-12-04T02:19:33;16.10;58.30
17182;DHT22;8706;48.254;16.422;2023-12-04T02:22:01;16.00;58.20
17182;DHT22;8706;48.254;16.422;2023-12-04T02:24:29;16.10;58.20
17182;DHT22;8706;48.254;16.422;2023-12-04T02:27:04;16.10;58.20
17182;DHT22;8706;48.254;16.422;2023-12-04T02:29:39;16.00;58.70
17182;DHT22;8706;48.254;16.422;2023-12-04T02:32:08;16.10;58.20
17182;DHT22;8706;48.254;16.422;2023-12-04T02:34:39;16.00;58.30
17182;DHT22;8706;48.254;16.422;2023-12-04T02:37:07;16.10;58.20
17182;DHT22;8706;48.254;16.422;2023-12-04T02:39:36;16.00;58.20
17182;DHT22;8706;48.254;16.422;2023-12-04T02:42:04;16.00;58.10
17182;DHT22;8706;48.254;16.422;2023-12-04T02:44:30;16.00;58.10
17182;DHT22;8706;48.254;16.422;2023-12-04T02:46:57;16.10;58.20
17182;DHT22;8706;48.254;16.422;2023-12-04T02:49:24;16.10;58.20
17182;DHT22;8706;48.254;16.422;2023-12-04T02:51:51;16.10;58.20
17182;DHT22;8706;48.254;16.422;2023-12-04T02:54:18;16.00;58.10
17182;DHT22;8706;48.254;16.422;2023-12-04T02:56:46;16.00;58.10
17182;DHT22;8706;48.254;16.422;2023-12-04T02:59:13;16.00;58.20
17182;DHT22;8706;48.254;16.422;2023-12-04T03:01:40;16.00;58.30
17182;DHT22;8706;48.254;16.422;2023-12-04T03:04:06;15.90;58.20
17182;DHT22;8706;48.254;16.422;2023-12-04T03:06:33;16.00;58.20
17182;DHT22;8706;48.254;16.422;2023-12-04T03:09:00;16.00;58.20
17182;DHT22;8706;48.254;16.422;2023-12-04T03:11:27;16.00;58.20
17182;DHT22;8706;48.254;16.422;2023-12-04T03:13:55;15.90;58.30
17182;DHT22;8706;48.254;16.422;2023-12-04T03:16:22;16.00;58.10
17182;DHT22;8706;48.254;16.422;2023-12-04T03:18:49;16.00;58.10
17182;DHT22;8706;48.254;16.422;2023-12-04T03:21:16;16.00;58.10
17182;DHT22;8706;48.254;16.422;2023-12-04T03:23:43;16.00;58.10
17182;DHT22;8706;48.254;16.422;2023-12-04T03:26:09;16.00;58.00
17182;DHT22;8706;48.254;16.422;2023-12-04T03:28:38;16.10;58.10
17182;DHT22;8706;48.254;16.422;2023-12-04T03:31:07;16.00;58.20
17182;DHT22;8706;48.254;16.422;2023-12-04T03:33:34;16.00;58.20
17182;DHT22;8706;48.254;16.422;2023-12-04T03:36:01;16.00;58.10
17182;DHT22;8706;48.254;16.422;2023-12-04T03:38:28;16.00;58.10
17182;DHT22;8706;48.254;16.422;2023-12-04T03:40:55;15.90;58.10
17182;DHT22;8706;48.254;16.422;2023-12-04T03:43:22;16.00;58.20
17182;DHT22;8706;48.254;16.422;2023-12-04T03:45:48;16.00;58.20
17182;DHT22;8706;48.254;16.422;2023-12-04T03:48:17;16.00;58.10
17182;DHT22;8706;48.254;16.422;2023-12-04T03:50:43;15.90;58.10
17182;DHT22;8706;48.254;16.422;2023-12-04T03:53:10;16.00;58.10
17182;DHT22;8706;48.254;16.422;2023-12-04T03:55:37;16.00;58.00
17182;DHT22;8706;48.254;16.422;2023-12-04T03:58:04;16.00;58.10
17182;DHT22;8706;48.254;16.422;2023-12-04T04:00:31;15.90;58.20
17182;DHT22;8706;48.254;16.422;2023-12-04T04:02:58;16.00;58.10
17182;DHT22;8706;48.254;16.422;2023-12-04T04:05:26;15.90;58.00
17182;DHT22;8706;48.254;16.422;2023-12-04T04:07:53;15.90;58.00
17182;DHT22;8706;48.254;16.422;2023-12-04T04:10:20;15.90;58.00
17182;DHT22;8706;48.254;16.422;2023-12-04T04:12:47;15.90;58.00
17182;DHT22;8706;48.254;16.422;2023-12-04T04:15:14;16.00;58.00
17182;DHT22;8706;48.254;16.422;2023-12-04T04:17:41;15.90;58.00
17182;DHT22;8706;48.254;16.422;2023-12-04T04:20:08;15.90;58.00
17182;DHT22;8706;48.254;16.422;2023-12-04T04:22:38;15.90;58.00
17182;DHT22;8706;48.254;16.422;2023-12-04T04:25:07;15.90;58.00
17182;DHT22;8706;48.254;16.422;2023-12-04T04:27:34;15.90;58.00
17182;DHT22;8706;48.254;16.422;2023-12-04T04:30:01;15.90;58.00
17182;DHT22;8706;48.254;16.422;2023-12-04T04:32:28;16.00;57.90
17182;DHT22;8706;48.254;16.422;2023-12-04T04:34:55;15.90;57.90
17182;DHT22;8706;48.254;16.422;2023-12-04T04:37:22;15.90;57.90
17182;DHT22;8706;48.254;16.422;2023-12-04T04:39:50;15.90;57.90
17182;DHT22;8706;48.254;16.422;2023-12-04T04:42:17;15.90;57.90
17182;DHT22;8706;48.254;16.422;2023-12-04T04:44:43;15.90;58.00
17182;DHT22;8706;48.254;16.422;2023-12-04T04:47:10;15.90;57.90
17182;DHT22;8706;48.254;16.422;2023-12-04T04:49:37;15.90;58.00
17182;DHT22;8706;48.254;16.422;2023-12-04T04:52:05;15.90;58.00
17182;DHT22;8706;48.254;16.422;2023-12-04T04:54:31;15.90;58.00
17182;DHT22;8706;48.254;16.422;2023-12-04T04:57:00;15.90;57.90
17182;DHT22;8706;48.254;16.422;2023-12-04T04:59:27;15.90;57.90
17182;DHT22;8706;48.254;16.422;2023-12-04T05:01:55;15.80;58.00
17182;DHT22;8706;48.254;16.422;2023-12-04T05:04:22;15.90;58.00
17182;DHT22;8706;48.254;16.422;2023-12-04T05:06:49;15.90;57.90
17182;DHT22;8706;48.254;16.422;2023-12-04T05:09:16;15.90;57.80
17182;DHT22;8706;48.254;16.422;2023-12-04T05:11:43;15.80;57.80
17182;DHT22;8706;48.254;16.422;2023-12-04T05:14:12;15.80;57.70
17182;DHT22;8706;48.254;16.422;2023-12-04T05:16:38;15.80;57.80
17182;DHT22;8706;48.254;16.422;2023-12-04T05:19:05;15.90;57.90
17182;DHT22;8706;48.254;16.422;2023-12-04T05:21:32;15.80;57.80
17182;DHT22;8706;48.254;16.422;2023-12-04T05:23:59;15.80;57.90
17182;DHT22;8706;48.254;16.422;2023-12-04T05:26:26;15.80;57.90
17182;DHT22;8706;48.254;16.422;2023-12-04T05:28:53;15.80;57.90
17182;DHT22;8706;48.254;16.422;2023-12-04T05:31:22;15.80;58.00
17182;DHT22;8706;48.254;16.422;2023-12-04T05:33:48;15.80;57.90
17182;DHT22;8706;48.254;16.422;2023-12-04T05:36:15;15.90;57.80
17182;DHT22;8706;48.254;16.422;2023-12-04T05:38:42;15.80;57.90
17182;DHT22;8706;48.254;16.422;2023-12-04T05:41:09;15.80;57.90
17182;DHT22;8706;48.254;16.422;2023-12-04T05:43:36;15.80;57.90
17182;DHT22;8706;48.254;16.422;2023-12-04T05:46:03;15.80;57.90
17182;DHT22;8706;48.254;16.422;2023-12-04T05:48:31;15.80;57.90
17182;DHT22;8706;48.254;16.422;2023-12-04T05:50:58;15.80;57.90
17182;DHT22;8706;48.254;16.422;2023-12-04T05:53:25;15.80;57.80
17182;DHT22;8706;48.254;16.422;2023-12-04T05:55:52;15.80;57.90
17182;DHT22;8706;48.254;16.422;2023-12-04T05:58:19;15.70;57.90
17182;DHT22;8706;48.254;16.422;2023-12-04T06:00:46;15.70;57.90
17182;DHT22;8706;48.254;16.422;2023-12-04T06:03:12;15.70;58.00
17182;DHT22;8706;48.254;16.422;2023-12-04T06:05:41;15.80;57.90
17182;DHT22;8706;48.254;16.422;2023-12-04T06:08:07;15.70;57.90
17182;DHT22;8706;48.254;16.422;2023-12-04T06:10:34;15.70;57.80
17182;DHT22;8706;48.254;16.422;2023-12-04T06:13:01;15.70;57.80
17182;DHT22;8706;48.254;16.422;2023-12-04T06:15:27;15.70;57.80
17182;DHT22;8706;48.254;16.422;2023-12-04T06:17:54;15.70;57.90
17182;DHT22;8706;48.254;16.422;2023-12-04T06:20:22;15.70;57.90
17182;DHT22;8706;48.254;16.422;2023-12-04T06:22:51;15.70;57.90
17182;DHT22;8706;48.254;16.422;2023-12-04T06:25:18;15.70;57.90
17182;DHT22;8706;48.254;16.422;2023-12-04T06:27:46;15.70;57.90
17182;DHT22;8706;48.254;16.422;2023-12-04T06:30:14;15.70;57.80
17182;DHT22;8706;48.254;16.422;2023-12-04T06:32:41;15.70;57.80
17182;DHT22;8706;48.254;16.422;2023-12-04T06:35:09;15.70;57.80
17182;DHT22;8706;48.254;16.422;2023-12-04T06:37:38;15.70;57.80
17182;DHT22;8706;48.254;16.422;2023-12-04T06:40:08;15.70;57.70
17182;DHT22;8706;48.254;16.422;2023-12-04T06:42:37;15.70;57.70
17182;DHT22;8706;48.254;16.422;2023-12-04T06:45:05;15.80;57.90
17182;DHT22;8706;48.254;16.422;2023-12-04T06:47:34;16.00;57.70
17182;DHT22;8706;48.254;16.422;2023-12-04T06:50:01;16.30;57.50
17182;DHT22;8706;48.254;16.422;2023-12-04T06:52:28;16.60;57.20
17182;DHT22;8706;48.254;16.422;2023-12-04T06:54:55;17.00;56.80
17182;DHT22;8706;48.254;16.422;2023-12-04T06:57:23;17.20;56.40
17182;DHT22;8706;48.254;16.422;2023-12-04T06:59:50;17.00;56.50
17182;DHT22;8706;48.254;16.422;2023-12-04T07:02:17;16.90;56.80
17182;DHT22;8706;48.254;16.422;2023-12-04T07:04:44;16.90;56.90
17182;DHT22;8706;48.254;16.422;2023-12-04T07:07:10;17.00;56.70
17182;DHT22;8706;48.254;16.422;2023-12-04T07:09:38;17.10;56.60
17182;DHT22;8706;48.254;16.422;2023-12-04T07:12:05;17.30;56.40
17182;DHT22;8706;48.254;16.422;2023-12-04T07:14:33;17.70;56.20
17182;DHT22;8706;48.254;16.422;2023-12-04T07:17:00;17.80;56.00
17182;DHT22;8706;48.254;16.422;2023-12-04T07:19:27;17.70;56.10
17182;DHT22;8706;48.254;16.422;2023-12-04T07:21:54;17.50;56.20
17182;DHT22;8706;48.254;16.422;2023-12-04T07:24:21;17.30;56.60
17182;DHT22;8706;48.254;16.422;2023-12-04T07:26:48;17.30;56.90
17182;DHT22;8706;48.254;16.422;2023-12-04T07:29:15;17.20;56.90
17182;DHT22;8706;48.254;16.422;2023-12-04T07:31:44;17.10;57.10
17182;DHT22;8706;48.254;16.422;2023-12-04T07:34:11;17.50;56.60
17182;DHT22;8706;48.254;16.422;2023-12-04T07:36:38;17.60;56.70
17182;DHT22;8706;48.254;16.422;2023-12-04T07:39:05;17.80;56.50
17182;DHT22;8706;48.254;16.422;2023-12-04T07:41:32;18.00;56.40
17182;DHT22;8706;48.254;16.422;2023-12-04T07:43:59;18.20;56.00
17182;DHT22;8706;48.254;16.422;2023-12-04T07:46:26;18.10;55.90
17182;DHT22;8706;48.254;16.422;2023-12-04T07:48:54;18.00;56.20
17182;DHT22;8706;48.254;16.422;2023-12-04T07:51:21;17.80;56.50
17182;DHT22;8706;48.254;16.422;2023-12-04T07:53:48;17.80;56.70
17182;DHT22;8706;48.254;16.422;2023-12-04T07:56:15;17.80;56.70
17182;DHT22;8706;48.254;16.422;2023-12-04T07:58:42;18.10;56.60
17182;DHT22;8706;48.254;16.422;2023-12-04T08:01:09;18.00;56.50
17182;DHT22;8706;48.254;16.422;2023-12-04T08:03:36;18.30;56.40
17182;DHT22;8706;48.254;16.422;2023-12-04T08:06:05;18.60;56.10
17182;DHT22;8706;48.254;16.422;2023-12-04T08:08:32;18.50;56.00
17182;DHT22;8706;48.254;16.422;2023-12-04T08:11:00;18.30;56.40
17182;DHT22;8706;48.254;16.422;2023-12-04T08:13:29;18.20;56.60
17182;DHT22;8706;48.254;16.422;2023-12-04T08:15:56;18.30;56.60
17182;DHT22;8706;48.254;16.422;2023-12-04T08:18:23;18.60;56.10
17182;DHT22;8706;48.254;16.422;2023-12-04T08:20:50;18.60;56.10
17182;DHT22;8706;48.254;16.422;2023-12-04T08:23:18;18.90;55.80
17182;DHT22;8706;48.254;16.422;2023-12-04T08:25:45;19.00;55.50
17182;DHT22;8706;48.254;16.422;2023-12-04T08:28:13;19.10;55.50
17182;DHT22;8706;48.254;16.422;2023-12-04T08:30:39;19.10;55.50
17182;DHT22;8706;48.254;16.422;2023-12-04T08:33:06;18.90;55.60
17182;DHT22;8706;48.254;16.422;2023-12-04T08:35:33;18.10;55.60
17182;DHT22;8706;48.254;16.422;2023-12-04T08:38:00;18.50;56.40
17182;DHT22;8706;48.254;16.422;2023-12-04T08:40:28;18.60;56.00
17182;DHT22;8706;48.254;16.422;2023-12-04T08:42:55;19.10;55.50
17182;DHT22;8706;48.254;16.422;2023-12-04T08:45:22;19.20;55.30
17182;DHT22;8706;48.254;16.422;2023-12-04T08:47:49;19.40;55.00
17182;DHT22;8706;48.254;16.422;2023-12-04T08:50:16;19.60;54.90
17182;DHT22;8706;48.254;16.422;2023-12-04T08:52:43;19.60;54.70
17182;DHT22;8706;48.254;16.422;2023-12-04T08:55:10;19.60;54.90
17182;DHT22;8706;48.254;16.422;2023-12-04T08:57:38;19.50;54.80
17182;DHT22;8706;48.254;16.422;2023-12-04T09:00:06;19.70;54.80
17182;DHT22;8706;48.254;16.422;2023-12-04T09:02:34;19.90;54.50
17182;DHT22;8706;48.254;16.422;2023-12-04T09:05:01;20.00;54.10
17182;DHT22;8706;48.254;16.422;2023-12-04T09:07:28;20.30;53.90
17182;DHT22;8706;48.254;16.422;2023-12-04T09:09:55;20.40;53.70
17182;DHT22;8706;48.254;16.422;2023-12-04T09:12:21;20.60;53.60
17182;DHT22;8706;48.254;16.422;2023-12-04T09:14:50;20.50;53.60
17182;DHT22;8706;48.254;16.422;2023-12-04T09:17:16;20.40;53.70
17182;DHT22;8706;48.254;16.422;2023-12-04T09:19:43;20.40;53.70
17182;DHT22;8706;48.254;16.422;2023-12-04T09:22:10;20.30;53.70
17182;DHT22;8706;48.254;16.422;2023-12-04T09:24:37;20.30;53.70
17182;DHT22;8706;48.254;16.422;2023-12-04T09:27:04;20.50;53.70
17182;DHT22;8706;48.254;16.422;2023-12-04T09:29:33;20.80;53.30
17182;DHT22;8706;48.254;16.422;2023-12-04T09:32:01;20.90;53.10
17182;DHT22;8706;48.254;16.422;2023-12-04T09:34:28;21.10;52.80
17182;DHT22;8706;48.254;16.422;2023-12-04T09:36:55;21.00;53.00
17182;DHT22;8706;48.254;16.422;2023-12-04T09:39:21;20.90;52.90
17182;DHT22;8706;48.254;16.422;2023-12-04T09:41:48;20.80;52.60
17182;DHT22;8706;48.254;16.422;2023-12-04T09:44:16;20.80;52.80
17182;DHT22;8706;48.254;16.422;2023-12-04T09:46:44;20.80;53.20
17182;DHT22;8706;48.254;16.422;2023-12-04T09:49:13;21.00;53.00
17182;DHT22;8706;48.254;16.422;2023-12-04T09:51:40;21.20;52.60
17182;DHT22;8706;48.254;16.422;2023-12-04T09:54:07;21.40;52.30
17182;DHT22;8706;48.254;16.422;2023-12-04T09:56:35;21.50;52.20
17182;DHT22;8706;48.254;16.422;2023-12-04T09:59:06;21.50;52.00
17182;DHT22;8706;48.254;16.422;2023-12-04T10:01:36;21.40;51.90
17182;DHT22;8706;48.254;16.422;2023-12-04T10:04:03;21.40;52.20
17182;DHT22;8706;48.254;16.422;2023-12-04T10:06:33;21.40;51.90
17182;DHT22;8706;48.254;16.422;2023-12-04T10:09:01;21.40;52.00
17182;DHT22;8706;48.254;16.422;2023-12-04T10:11:29;21.50;52.30
17182;DHT22;8706;48.254;16.422;2023-12-04T10:13:56;21.70;52.00
17182;DHT22;8706;48.254;16.422;2023-12-04T10:16:33;21.80;51.60
17182;DHT22;8706;48.254;16.422;2023-12-04T10:19:15;22.00;51.40
17182;DHT22;8706;48.254;16.422;2023-12-04T10:21:44;22.10;51.20
17182;DHT22;8706;48.254;16.422;2023-12-04T10:24:11;22.00;51.20
17182;DHT22;8706;48.254;16.422;2023-12-04T10:26:49;22.00;51.20
17182;DHT22;8706;48.254;16.422;2023-12-04T10:29:17;21.90;51.20
17182;DHT22;8706;48.254;16.422;2023-12-04T10:31:44;21.90;51.30
17182;DHT22;8706;48.254;16.422;2023-12-04T10:34:10;21.80;51.20
17182;DHT22;8706;48.254;16.422;2023-12-04T10:36:38;21.80;51.50
17182;DHT22;8706;48.254;16.422;2023-12-04T10:39:06;21.70;51.80
17182;DHT22;8706;48.254;16.422;2023-12-04T10:41:34;21.90;51.60
17182;DHT22;8706;48.254;16.422;2023-12-04T10:44:01;22.00;51.20
17182;DHT22;8706;48.254;16.422;2023-12-04T10:46:28;22.10;51.10
17182;DHT22;8706;48.254;16.422;2023-12-04T10:48:56;22.10;51.10
17182;DHT22;8706;48.254;16.422;2023-12-04T10:51:25;22.10;51.00
17182;DHT22;8706;48.254;16.422;2023-12-04T10:53:53;22.00;51.00
17182;DHT22;8706;48.254;16.422;2023-12-04T10:56:27;21.90;51.20
17182;DHT22;8706;48.254;16.422;2023-12-04T10:58:57;21.80;51.20
17182;DHT22;8706;48.254;16.422;2023-12-04T11:01:28;21.80;51.30
17182;DHT22;8706;48.254;16.422;2023-12-04T11:03:59;21.70;51.60
17182;DHT22;8706;48.254;16.422;2023-12-04T11:06:35;21.80;51.60
17182;DHT22;8706;48.254;16.422;2023-12-04T11:09:06;21.90;51.30
17182;DHT22;8706;48.254;16.422;2023-12-04T11:11:36;22.00;51.20
17182;DHT22;8706;48.254;16.422;2023-12-04T11:14:07;22.10;51.30
17182;DHT22;8706;48.254;16.422;2023-12-04T11:16:41;22.00;51.00
17182;DHT22;8706;48.254;16.422;2023-12-04T11:19:14;22.00;51.10
17182;DHT22;8706;48.254;16.422;2023-12-04T11:21:45;21.90;51.30
17182;DHT22;8706;48.254;16.422;2023-12-04T11:24:12;21.80;51.30
17182;DHT22;8706;48.254;16.422;2023-12-04T11:26:41;21.80;51.60
17182;DHT22;8706;48.254;16.422;2023-12-04T11:29:08;21.90;51.50
17182;DHT22;8706;48.254;16.422;2023-12-04T11:31:36;22.00;51.20
17182;DHT22;8706;48.254;16.422;2023-12-04T11:34:03;22.10;51.20
17182;DHT22;8706;48.254;16.422;2023-12-04T11:36:31;22.10;51.00
17182;DHT22;8706;48.254;16.422;2023-12-04T11:38:58;22.00;51.10
17182;DHT22;8706;48.254;16.422;2023-12-04T11:41:26;21.90;51.30
17182;DHT22;8706;48.254;16.422;2023-12-04T11:43:56;21.70;51.80
17182;DHT22;8706;48.254;16.422;2023-12-04T11:46:24;21.70;51.70
17182;DHT22;8706;48.254;16.422;2023-12-04T11:48:54;21.70;52.00
17182;DHT22;8706;48.254;16.422;2023-12-04T11:51:46;21.80;51.80
17182;DHT22;8706;48.254;16.422;2023-12-04T11:54:17;21.80;51.60
17182;DHT22;8706;48.254;16.422;2023-12-04T11:56:56;21.90;51.40
17182;DHT22;8706;48.254;16.422;2023-12-04T11:59:25;21.80;51.60
17182;DHT22;8706;48.254;16.422;2023-12-04T12:01:55;21.60;52.10
17182;DHT22;8706;48.254;16.422;2023-12-04T12:04:23;21.40;52.20
17182;DHT22;8706;48.254;16.422;2023-12-04T12:06:50;21.20;52.40
17182;DHT22;8706;48.254;16.422;2023-12-04T12:09:17;21.10;52.60
17182;DHT22;8706;48.254;16.422;2023-12-04T12:11:45;21.10;52.70
17182;DHT22;8706;48.254;16.422;2023-12-04T12:14:12;21.20;52.30
17182;DHT22;8706;48.254;16.422;2023-12-04T12:16:40;21.30;52.80
17182;DHT22;8706;48.254;16.422;2023-12-04T12:19:07;21.30;52.20
17182;DHT22;8706;48.254;16.422;2023-12-04T12:21:34;21.30;52.20
17182;DHT22;8706;48.254;16.422;2023-12-04T12:24:01;21.10;52.40
17182;DHT22;8706;48.254;16.422;2023-12-04T12:26:28;20.90;52.60
17182;DHT22;8706;48.254;16.422;2023-12-04T12:28:56;20.70;52.90
17182;DHT22;8706;48.254;16.422;2023-12-04T12:31:23;20.50;53.20
17182;DHT22;8706;48.254;16.422;2023-12-04T12:33:52;20.70;53.20
17182;DHT22;8706;48.254;16.422;2023-12-04T12:36:22;21.00;52.80
17182;DHT22;8706;48.254;16.422;2023-12-04T12:38:49;20.90;52.70
17182;DHT22;8706;48.254;16.422;2023-12-04T12:41:16;21.00;52.60
17182;DHT22;8706;48.254;16.422;2023-12-04T12:43:43;20.90;52.80
17182;DHT22;8706;48.254;16.422;2023-12-04T12:46:11;20.70;53.20
17182;DHT22;8706;48.254;16.422;2023-12-04T12:48:37;20.40;53.40
17182;DHT22;8706;48.254;16.422;2023-12-04T12:51:07;20.20;53.60
17182;DHT22;8706;48.254;16.422;2023-12-04T12:53:36;20.10;54.00
17182;DHT22;8706;48.254;16.422;2023-12-04T12:56:04;20.00;54.20
17182;DHT22;8706;48.254;16.422;2023-12-04T12:58:32;19.80;54.30
17182;DHT22;8706;48.254;16.422;2023-12-04T13:01:00;20.00;54.50
17182;DHT22;8706;48.254;16.422;2023-12-04T13:03:28;20.30;54.00
17182;DHT22;8706;48.254;16.422;2023-12-04T13:05:56;20.20;53.90
17182;DHT22;8706;48.254;16.422;2023-12-04T13:08:25;20.30;53.70
17182;DHT22;8706;48.254;16.422;2023-12-04T13:10:52;20.20;53.60
17182;DHT22;8706;48.254;16.422;2023-12-04T13:13:19;20.10;53.90
17182;DHT22;8706;48.254;16.422;2023-12-04T13:15:46;19.90;54.10
17182;DHT22;8706;48.254;16.422;2023-12-04T13:18:13;19.80;54.20
17182;DHT22;8706;48.254;16.422;2023-12-04T13:20:40;19.60;54.70
17182;DHT22;8706;48.254;16.422;2023-12-04T13:23:07;19.50;54.80
17182;DHT22;8706;48.254;16.422;2023-12-04T13:25:35;19.40;54.80
17182;DHT22;8706;48.254;16.422;2023-12-04T13:28:03;19.70;54.30
17182;DHT22;8706;48.254;16.422;2023-12-04T13:30:30;19.80;54.10
17182;DHT22;8706;48.254;16.422;2023-12-04T13:32:58;19.90;54.30
17182;DHT22;8706;48.254;16.422;2023-12-04T13:35:25;19.90;54.20
17182;DHT22;8706;48.254;16.422;2023-12-04T13:37:52;19.80;54.20
17182;DHT22;8706;48.254;16.422;2023-12-04T13:40:22;19.60;54.20
17182;DHT22;8706;48.254;16.422;2023-12-04T13:42:53;19.50;54.40
17182;DHT22;8706;48.254;16.422;2023-12-04T13:45:37;19.30;54.80
17182;DHT22;8706;48.254;16.422;2023-12-04T13:48:04;19.20;54.80
17182;DHT22;8706;48.254;16.422;2023-12-04T13:50:31;19.10;55.20
17182;DHT22;8706;48.254;16.422;2023-12-04T13:52:58;19.00;55.00
17182;DHT22;8706;48.254;16.422;2023-12-04T13:55:26;19.40;54.80
17182;DHT22;8706;48.254;16.422;2023-12-04T13:58:10;19.30;54.60
17182;DHT22;8706;48.254;16.422;2023-12-04T14:00:57;19.50;54.60
17182;DHT22;8706;48.254;16.422;2023-12-04T14:03:25;19.60;54.40
17182;DHT22;8706;48.254;16.422;2023-12-04T14:05:53;19.50;54.30
17182;DHT22;8706;48.254;16.422;2023-12-04T14:08:20;19.30;54.70
17182;DHT22;8706;48.254;16.422;2023-12-04T14:10:47;19.20;54.50
17182;DHT22;8706;48.254;16.422;2023-12-04T14:13:15;19.10;54.40
17182;DHT22;8706;48.254;16.422;2023-12-04T14:15:43;19.00;54.80
17182;DHT22;8706;48.254;16.422;2023-12-04T14:18:10;18.90;54.90
17182;DHT22;8706;48.254;16.422;2023-12-04T14:20:37;18.80;55.00
17182;DHT22;8706;48.254;16.422;2023-12-04T14:23:04;18.70;55.30
17182;DHT22;8706;48.254;16.422;2023-12-04T14:25:31;18.60;55.50
17182;DHT22;8706;48.254;16.422;2023-12-04T14:27:58;18.50;55.70
17182;DHT22;8706;48.254;16.422;2023-12-04T14:30:26;18.50;55.70
17182;DHT22;8706;48.254;16.422;2023-12-04T14:32:53;18.40;55.50
17182;DHT22;8706;48.254;16.422;2023-12-04T14:35:20;18.40;55.30
17182;DHT22;8706;48.254;16.422;2023-12-04T14:37:47;18.30;55.50
17182;DHT22;8706;48.254;16.422;2023-12-04T14:40:14;18.30;55.60
17182;DHT22;8706;48.254;16.422;2023-12-04T14:42:41;18.30;55.40
17182;DHT22;8706;48.254;16.422;2023-12-04T14:45:08;18.20;55.50
17182;DHT22;8706;48.254;16.422;2023-12-04T14:47:36;18.10;55.40
17182;DHT22;8706;48.254;16.422;2023-12-04T14:50:04;18.10;55.30
17182;DHT22;8706;48.254;16.422;2023-12-04T14:52:32;18.10;55.20
17182;DHT22;8706;48.254;16.422;2023-12-04T14:55:03;18.00;55.30
17182;DHT22;8706;48.254;16.422;2023-12-04T14:57:58;18.00;55.20
17182;DHT22;8706;48.254;16.422;2023-12-04T15:00:39;18.00;55.30
17182;DHT22;8706;48.254;16.422;2023-12-04T15:03:40;17.90;55.30
17182;DHT22;8706;48.254;16.422;2023-12-04T15:06:55;17.90;55.40
17182;DHT22;8706;48.254;16.422;2023-12-04T15:09:38;17.90;55.30
17182;DHT22;8706;48.254;16.422;2023-12-04T15:12:25;17.90;55.40
17182;DHT22;8706;48.254;16.422;2023-12-04T15:14:53;17.80;55.10
17182;DHT22;8706;48.254;16.422;2023-12-04T15:17:25;17.80;55.30
17182;DHT22;8706;48.254;16.422;2023-12-04T15:20:11;17.80;55.10
17182;DHT22;8706;48.254;16.422;2023-12-04T15:22:57;17.80;55.30
17182;DHT22;8706;48.254;16.422;2023-12-04T15:25:24;17.70;55.10
17182;DHT22;8706;48.254;16.422;2023-12-04T15:27:50;17.70;55.20
17182;DHT22;8706;48.254;16.422;2023-12-04T15:30:17;17.70;55.10
17182;DHT22;8706;48.254;16.422;2023-12-04T15:32:43;17.60;55.10
17182;DHT22;8706;48.254;16.422;2023-12-04T15:35:11;17.60;55.30
17182;DHT22;8706;48.254;16.422;2023-12-04T15:37:37;17.70;55.10